Allen, Kansas
Current Conditions -  °F | °C
As of 2:09 PM on Sunday 23 Nov 2014 (Local Time) from KEMP Reporting Station
Overcast Overcast  
Wind Chill: 56°   Ceiling: 2500
Heat Index: 56°   Visibility: 10mi
Dew Point: 52°   Wind: 9mph
Humidity: 87%   Direction: 330°NNW
Pressure: 29.35"   Gusts: NA
Location:  38.66°N, 96.17°W
Report Text: KEMP 232009Z AUTO 33008KT 10SM SCT019 BKN025 OVC060 13/11 A2935 RMK AO2 T01330111
Loading
Personal Weather Stations






























Interactive Weather Map New forecast layout! Learn more

10-Day Weather Forecast

Advertisements
Track Severe Weather on mobile